sensor_id;sensor_type;location;lat;lon;timestamp;pressure;altitude;pressure_sealevel;temperature;humidity
53619;BME280;39505;53.040;18.488;2022-12-29T00:00:10;100738.09;;;6.82;100.00
53619;BME280;39505;53.040;18.488;2022-12-29T00:00:32;100736.34;;;6.81;100.00
53619;BME280;39505;53.040;18.488;2022-12-29T00:01:05;100745.19;;;6.81;100.00
53619;BME280;39505;53.040;18.488;2022-12-29T00:01:18;100741.69;;;6.81;100.00
53619;BME280;39505;53.040;18.488;2022-12-29T00:01:31;100731.25;;;6.77;100.00
53619;BME280;39505;53.040;18.488;2022-12-29T00:01:44;100734.78;;;6.78;100.00
53619;BME280;39505;53.040;18.488;2022-12-29T00:01:56;100737.34;;;6.80;100.00
53619;BME280;39505;53.040;18.488;2022-12-29T00:02:11;100738.28;;;6.78;100.00
53619;BME280;39505;53.040;18.488;2022-12-29T00:02:24;100730.28;;;6.78;100.00
53619;BME280;39505;53.040;18.488;2022-12-29T00:02:37;100733.78;;;6.79;100.00
53619;BME280;39505;53.040;18.488;2022-12-29T00:02:50;100733.50;;;6.84;100.00
53619;BME280;39505;53.040;18.488;2022-12-29T00:03:03;100739.75;;;6.83;100.00
53619;BME280;39505;53.040;18.488;2022-12-29T00:03:16;100734.53;;;6.81;100.00
53619;BME280;39505;53.040;18.488;2022-12-29T00:03:29;100741.69;;;6.81;100.00
53619;BME280;39505;53.040;18.488;2022-12-29T00:03:45;100735.63;;;6.78;100.00
53619;BME280;39505;53.040;18.488;2022-12-29T00:03:58;100737.34;;;6.80;100.00
53619;BME280;39505;53.040;18.488;2022-12-29T00:04:12;100733.78;;;6.79;100.00
53619;BME280;39505;53.040;18.488;2022-12-29T00:04:26;100733.78;;;6.79;100.00
53619;BME280;39505;53.040;18.488;2022-12-29T00:04:39;100735.63;;;6.78;100.00
53619;BME280;39505;53.040;18.488;2022-12-29T00:04:52;100740.94;;;6.78;100.00
53619;BME280;39505;53.040;18.488;2022-12-29T00:05:06;100738.19;;;6.80;100.00
53619;BME280;39505;53.040;18.488;2022-12-29T00:05:19;100734.66;;;6.80;100.00
53619;BME280;39505;53.040;18.488;2022-12-29T00:05:32;100726.88;;;6.76;100.00
53619;BME280;39505;53.040;18.488;2022-12-29T00:05:44;100738.41;;;6.77;100.00
53619;BME280;39505;53.040;18.488;2022-12-29T00:05:57;100735.75;;;6.77;100.00
53619;BME280;39505;53.040;18.488;2022-12-29T00:06:10;100736.69;;;6.76;100.00
53619;BME280;39505;53.040;18.488;2022-12-29T00:06:23;100739.34;;;6.76;100.00
53619;BME280;39505;53.040;18.488;2022-12-29T00:06:37;100733.78;;;6.79;100.00
53619;BME280;39505;53.040;18.488;2022-12-29T00:06:50;100730.41;;;6.77;100.00
53619;BME280;39505;53.040;18.488;2022-12-29T00:07:04;100734.88;;;6.76;100.00
53619;BME280;39505;53.040;18.488;2022-12-29T00:07:17;100735.84;;;6.75;100.00
53619;BME280;39505;53.040;18.488;2022-12-29T00:07:30;100727.84;;;6.75;100.00
53619;BME280;39505;53.040;18.488;2022-12-29T00:07:42;100734.88;;;6.76;100.00
53619;BME280;39505;53.040;18.488;2022-12-29T00:07:55;100732.34;;;6.75;100.00
53619;BME280;39505;53.040;18.488;2022-12-29T00:08:09;100731.47;;;6.74;100.00
53619;BME280;39505;53.040;18.488;2022-12-29T00:08:22;100734.13;;;6.74;100.00
53619;BME280;39505;53.040;18.488;2022-12-29T00:08:51;100728.03;;;6.72;100.00
53619;BME280;39505;53.040;18.488;2022-12-29T00:09:03;100733.38;;;6.72;100.00
53619;BME280;39505;53.040;18.488;2022-12-29T00:09:17;100731.69;;;6.71;100.00
53619;BME280;39505;53.040;18.488;2022-12-29T00:09:30;100730.84;;;6.71;100.00
53619;BME280;39505;53.040;18.488;2022-12-29T00:09:43;100732.53;;;6.72;100.00
53619;BME280;39505;53.040;18.488;2022-12-29T00:09:56;100726.34;;;6.71;100.00
53619;BME280;39505;53.040;18.488;2022-12-29T00:10:08;100731.69;;;6.71;100.00
53619;BME280;39505;53.040;18.488;2022-12-29T00:10:21;100728.19;;;6.71;100.00
53619;BME280;39505;53.040;18.488;2022-12-29T00:10:34;100732.63;;;6.70;100.00
53619;BME280;39505;53.040;18.488;2022-12-29T00:10:47;100731.78;;;6.70;100.00
53619;BME280;39505;53.040;18.488;2022-12-29T00:11:00;100727.31;;;6.70;100.00
53619;BME280;39505;53.040;18.488;2022-12-29T00:11:14;100738.94;;;6.69;100.00
53619;BME280;39505;53.040;18.488;2022-12-29T00:11:27;100737.97;;;6.70;100.00
53619;BME280;39505;53.040;18.488;2022-12-29T00:11:40;100729.25;;;6.68;100.00
53619;BME280;39505;53.040;18.488;2022-12-29T00:11:53;100731.91;;;6.68;100.00
53619;BME280;39505;53.040;18.488;2022-12-29T00:12:08;100731.91;;;6.68;100.00
53619;BME280;39505;53.040;18.488;2022-12-29T00:12:20;100724.03;;;6.67;100.00
53619;BME280;39505;53.040;18.488;2022-12-29T00:12:33;100728.50;;;6.66;100.00
53619;BME280;39505;53.040;18.488;2022-12-29T00:13:00;100732.75;;;6.69;100.00
53619;BME280;39505;53.040;18.488;2022-12-29T00:13:31;100727.63;;;6.66;100.00
53619;BME280;39505;53.040;18.488;2022-12-29T00:14:14;100727.53;;;6.67;100.00
53619;BME280;39505;53.040;18.488;2022-12-29T00:14:45;100724.03;;;6.67;100.00
53619;BME280;39505;53.040;18.488;2022-12-29T00:15:16;100728.50;;;6.66;100.00
53619;BME280;39505;53.040;18.488;2022-12-29T00:15:43;100730.19;;;6.67;100.00
53619;BME280;39505;53.040;18.488;2022-12-29T00:15:56;100719.53;;;6.67;100.00
53619;BME280;39505;53.040;18.488;2022-12-29T00:16:09;100718.78;;;6.65;100.00
53619;BME280;39505;53.040;18.488;2022-12-29T00:16:22;100723.28;;;6.65;100.00
53619;BME280;39505;53.040;18.488;2022-12-29T00:16:35;100720.50;;;6.66;100.00
53619;BME280;39505;53.040;18.488;2022-12-29T00:16:49;100715.38;;;6.63;100.00
53619;BME280;39505;53.040;18.488;2022-12-29T00:17:01;100719.78;;;6.64;100.00
53619;BME280;39505;53.040;18.488;2022-12-29T00:17:14;100715.28;;;6.65;100.00
53619;BME280;39505;53.040;18.488;2022-12-29T00:17:27;100724.13;;;6.65;100.00
53619;BME280;39505;53.040;18.488;2022-12-29T00:17:39;100719.53;;;6.67;100.00
53619;BME280;39505;53.040;18.488;2022-12-29T00:17:52;100709.97;;;6.65;100.00
53619;BME280;39505;53.040;18.488;2022-12-29T00:18:04;100723.94;;;6.68;100.00
53619;BME280;39505;53.040;18.488;2022-12-29T00:18:18;100719.53;;;6.67;100.00
53619;BME280;39505;53.040;18.488;2022-12-29T00:18:31;100724.88;;;6.67;100.00
53619;BME280;39505;53.040;18.488;2022-12-29T00:18:43;100725.84;;;6.66;100.00
53619;BME280;39505;53.040;18.488;2022-12-29T00:18:56;100719.63;;;6.66;100.00
53619;BME280;39505;53.040;18.488;2022-12-29T00:19:09;100720.38;;;6.68;100.00
53619;BME280;39505;53.040;18.488;2022-12-29T00:19:42;100715.28;;;6.65;100.00
53619;BME280;39505;53.040;18.488;2022-12-29T00:20:13;100712.53;;;6.66;100.00
53619;BME280;39505;53.040;18.488;2022-12-29T00:20:45;100722.22;;;6.67;100.00
53619;BME280;39505;53.040;18.488;2022-12-29T00:21:18;100709.84;;;6.66;100.00
53619;BME280;39505;53.040;18.488;2022-12-29T00:21:49;100713.38;;;6.67;100.00
53619;BME280;39505;53.040;18.488;2022-12-29T00:22:23;100711.78;;;6.64;100.00
53619;BME280;39505;53.040;18.488;2022-12-29T00:22:54;100718.06;;;6.63;100.00
53619;BME280;39505;53.040;18.488;2022-12-29T00:23:26;100711.88;;;6.63;100.00
53619;BME280;39505;53.040;18.488;2022-12-29T00:23:57;100713.56;;;6.64;100.00
53619;BME280;39505;53.040;18.488;2022-12-29T00:24:29;100713.69;;;6.62;100.00
53619;BME280;39505;53.040;18.488;2022-12-29T00:25:10;100708.25;;;6.64;100.00
53619;BME280;39505;53.040;18.488;2022-12-29T00:25:42;100705.47;;;6.65;100.00
53619;BME280;39505;53.040;18.488;2022-12-29T00:26:13;100701.22;;;6.63;100.00
53619;BME280;39505;53.040;18.488;2022-12-29T00:26:47;100703.88;;;6.63;100.00
53619;BME280;39505;53.040;18.488;2022-12-29T00:27:19;100703.97;;;6.61;100.00
53619;BME280;39505;53.040;18.488;2022-12-29T00:27:50;100702.16;;;6.62;100.00
53619;BME280;39505;53.040;18.488;2022-12-29T00:28:21;100699.50;;;6.62;100.00
53619;BME280;39505;53.040;18.488;2022-12-29T00:28:53;100695.06;;;6.62;100.00
53619;BME280;39505;53.040;18.488;2022-12-29T00:29:24;100698.66;;;6.61;100.00
53619;BME280;39505;53.040;18.488;2022-12-29T00:29:55;100699.63;;;6.60;100.00
53619;BME280;39505;53.040;18.488;2022-12-29T00:30:27;100694.50;;;6.57;100.00
53619;BME280;39505;53.040;18.488;2022-12-29T00:30:59;100696.97;;;6.60;100.00
53619;BME280;39505;53.040;18.488;2022-12-29T00:31:30;100696.22;;;6.58;100.00
53619;BME280;39505;53.040;18.488;2022-12-29T00:32:02;100700.56;;;6.59;100.00
53619;BME280;39505;53.040;18.488;2022-12-29T00:32:35;100700.56;;;6.59;100.00
53619;BME280;39505;53.040;18.488;2022-12-29T00:33:11;100696.22;;;6.58;100.00
53619;BME280;39505;53.040;18.488;2022-12-29T00:33:42;100701.53;;;6.58;100.00
53619;BME280;39505;53.040;18.488;2022-12-29T00:34:13;100698.78;;;6.60;100.00
53619;BME280;39505;53.040;18.488;2022-12-29T00:34:44;100698.88;;;6.58;100.00
53619;BME280;39505;53.040;18.488;2022-12-29T00:35:23;100702.28;;;6.60;100.00
53619;BME280;39505;53.040;18.488;2022-12-29T00:35:42;100701.44;;;6.60;100.00
53619;BME280;39505;53.040;18.488;2022-12-29T00:35:59;100701.44;;;6.60;100.00
53619;BME280;39505;53.040;18.488;2022-12-29T00:36:15;100690.66;;;6.61;100.00
53619;BME280;39505;53.040;18.488;2022-12-29T00:36:32;100703.13;;;6.61;100.00
53619;BME280;39505;53.040;18.488;2022-12-29T00:36:47;100700.47;;;6.61;100.00
53619;BME280;39505;53.040;18.488;2022-12-29T00:37:00;100696.97;;;6.60;100.00
53619;BME280;39505;53.040;18.488;2022-12-29T00:37:13;100700.38;;;6.62;100.00
53619;BME280;39505;53.040;18.488;2022-12-29T00:37:26;100696.97;;;6.60;100.00
53619;BME280;39505;53.040;18.488;2022-12-29T00:37:54;100695.16;;;6.61;100.00
53619;BME280;39505;53.040;18.488;2022-12-29T00:38:26;100697.72;;;6.62;100.00
53619;BME280;39505;53.040;18.488;2022-12-29T00:39:08;100695.06;;;6.62;100.00
53619;BME280;39505;53.040;18.488;2022-12-29T00:39:39;100688.97;;;6.60;100.00
53619;BME280;39505;53.040;18.488;2022-12-29T00:40:25;100689.81;;;6.61;100.00
53619;BME280;39505;53.040;18.488;2022-12-29T00:40:57;100689.72;;;6.62;100.00
53619;BME280;39505;53.040;18.488;2022-12-29T00:41:36;100695.06;;;6.62;100.00
53619;BME280;39505;53.040;18.488;2022-12-29T00:42:09;100693.00;;;6.66;100.00
53619;BME280;39505;53.040;18.488;2022-12-29T00:42:41;100697.16;;;6.70;100.00
53619;BME280;39505;53.040;18.488;2022-12-29T00:43:12;100689.28;;;6.68;100.00
53619;BME280;39505;53.040;18.488;2022-12-29T00:43:44;100692.91;;;6.67;100.00
53619;BME280;39505;53.040;18.488;2022-12-29T00:44:15;100688.53;;;6.66;100.00
53619;BME280;39505;53.040;18.488;2022-12-29T00:44:29;100685.00;;;6.66;100.00
53619;BME280;39505;53.040;18.488;2022-12-29T00:44:41;100687.66;;;6.66;100.00
53619;BME280;39505;53.040;18.488;2022-12-29T00:44:54;100686.94;;;6.64;100.00
53619;BME280;39505;53.040;18.488;2022-12-29T00:45:07;100693.88;;;6.66;100.00
53619;BME280;39505;53.040;18.488;2022-12-29T00:45:20;100685.88;;;6.66;100.00
53619;BME280;39505;53.040;18.488;2022-12-29T00:45:33;100690.34;;;6.66;100.00
53619;BME280;39505;53.040;18.488;2022-12-29T00:45:45;100685.88;;;6.66;100.00
53619;BME280;39505;53.040;18.488;2022-12-29T00:45:58;100681.41;;;6.67;100.00
53619;BME280;39505;53.040;18.488;2022-12-29T00:46:11;100692.81;;;6.69;100.00
53619;BME280;39505;53.040;18.488;2022-12-29T00:46:31;100684.16;;;6.65;100.00
53619;BME280;39505;53.040;18.488;2022-12-29T00:46:45;100684.81;;;6.69;100.00
53619;BME280;39505;53.040;18.488;2022-12-29T00:46:57;100681.41;;;6.67;100.00
53619;BME280;39505;53.040;18.488;2022-12-29T00:47:14;100686.72;;;6.67;100.00
53619;BME280;39505;53.040;18.488;2022-12-29T00:47:29;100688.53;;;6.66;100.00
53619;BME280;39505;53.040;18.488;2022-12-29T00:47:42;100684.91;;;6.67;100.00
53619;BME280;39505;53.040;18.488;2022-12-29T00:47:54;100691.22;;;6.66;100.00
53619;BME280;39505;53.040;18.488;2022-12-29T00:48:07;100688.66;;;6.65;100.00
53619;BME280;39505;53.040;18.488;2022-12-29T00:48:20;100691.22;;;6.66;100.00
53619;BME280;39505;53.040;18.488;2022-12-29T00:48:47;100692.91;;;6.67;100.00
53619;BME280;39505;53.040;18.488;2022-12-29T00:49:18;100687.56;;;6.67;100.00
53619;BME280;39505;53.040;18.488;2022-12-29T00:49:43;100688.53;;;6.66;100.00
53619;BME280;39505;53.040;18.488;2022-12-29T00:49:57;100687.81;;;6.64;100.00
53619;BME280;39505;53.040;18.488;2022-12-29T00:50:09;100689.50;;;6.65;100.00
53619;BME280;39505;53.040;18.488;2022-12-29T00:50:22;100685.97;;;6.65;100.00
53619;BME280;39505;53.040;18.488;2022-12-29T00:50:35;100691.31;;;6.65;100.00
53619;BME280;39505;53.040;18.488;2022-12-29T00:50:47;100693.13;;;6.64;100.00
53619;BME280;39505;53.040;18.488;2022-12-29T00:51:00;100692.25;;;6.64;100.00
53619;BME280;39505;53.040;18.488;2022-12-29T00:51:12;100681.59;;;6.64;100.00
53619;BME280;39505;53.040;18.488;2022-12-29T00:51:25;100687.81;;;6.64;100.00
53619;BME280;39505;53.040;18.488;2022-12-29T00:51:38;100698.47;;;6.64;100.00
53619;BME280;39505;53.040;18.488;2022-12-29T00:51:51;100697.38;;;6.67;100.00
53619;BME280;39505;53.040;18.488;2022-12-29T00:52:04;100694.81;;;6.65;100.00
53619;BME280;39505;53.040;18.488;2022-12-29T00:52:18;100687.81;;;6.64;100.00
53619;BME280;39505;53.040;18.488;2022-12-29T00:52:31;100683.31;;;6.65;100.00
53619;BME280;39505;53.040;18.488;2022-12-29T00:52:43;100688.66;;;6.65;100.00
53619;BME280;39505;53.040;18.488;2022-12-29T00:52:56;100694.81;;;6.65;100.00
53619;BME280;39505;53.040;18.488;2022-12-29T00:53:09;100691.31;;;6.65;100.00
53619;BME280;39505;53.040;18.488;2022-12-29T00:53:21;100696.63;;;6.65;100.00
53619;BME280;39505;53.040;18.488;2022-12-29T00:53:34;100690.34;;;6.66;100.00
53619;BME280;39505;53.040;18.488;2022-12-29T00:53:46;100694.81;;;6.65;100.00
53619;BME280;39505;53.040;18.488;2022-12-29T00:53:59;100694.81;;;6.65;100.00
53619;BME280;39505;53.040;18.488;2022-12-29T00:54:14;100693.75;;;6.68;100.00
53619;BME280;39505;53.040;18.488;2022-12-29T00:54:31;100698.22;;;6.67;100.00
53619;BME280;39505;53.040;18.488;2022-12-29T00:54:45;100694.72;;;6.67;100.00
53619;BME280;39505;53.040;18.488;2022-12-29T00:54:57;100694.72;;;6.67;100.00
53619;BME280;39505;53.040;18.488;2022-12-29T00:55:11;100687.66;;;6.66;100.00
53619;BME280;39505;53.040;18.488;2022-12-29T00:55:24;100688.66;;;6.65;100.00
53619;BME280;39505;53.040;18.488;2022-12-29T00:55:37;100689.50;;;6.65;100.00
53619;BME280;39505;53.040;18.488;2022-12-29T00:55:50;100687.81;;;6.64;100.00
53619;BME280;39505;53.040;18.488;2022-12-29T00:56:03;100693.13;;;6.64;100.00
53619;BME280;39505;53.040;18.488;2022-12-29T00:56:15;100693.13;;;6.64;100.00
53619;BME280;39505;53.040;18.488;2022-12-29T00:56:29;100690.47;;;6.64;100.00
53619;BME280;39505;53.040;18.488;2022-12-29T00:56:41;100691.31;;;6.65;100.00
53619;BME280;39505;53.040;18.488;2022-12-29T00:56:55;100691.41;;;6.63;100.00
53619;BME280;39505;53.040;18.488;2022-12-29T00:57:09;100688.75;;;6.63;100.00
53619;BME280;39505;53.040;18.488;2022-12-29T00:57:22;100694.06;;;6.63;100.00
53619;BME280;39505;53.040;18.488;2022-12-29T00:57:34;100695.78;;;6.64;100.00
53619;BME280;39505;53.040;18.488;2022-12-29T00:57:48;100693.13;;;6.64;100.00
53619;BME280;39505;53.040;18.488;2022-12-29T00:58:01;100698.22;;;6.67;100.00
53619;BME280;39505;53.040;18.488;2022-12-29T00:58:14;100696.63;;;6.65;100.00
53619;BME280;39505;53.040;18.488;2022-12-29T00:58:29;100693.97;;;6.65;100.00
53619;BME280;39505;53.040;18.488;2022-12-29T00:58:42;100696.63;;;6.65;100.00
53619;BME280;39505;53.040;18.488;2022-12-29T00:58:55;100690.22;;;6.67;100.00
53619;BME280;39505;53.040;18.488;2022-12-29T00:59:09;100691.31;;;6.65;100.00
53619;BME280;39505;53.040;18.488;2022-12-29T00:59:22;100699.19;;;6.66;100.00
53619;BME280;39505;53.040;18.488;2022-12-29T00:59:37;100688.66;;;6.65;100.00
53619;BME280;39505;53.040;18.488;2022-12-29T00:59:50;100698.22;;;6.67;100.00
53619;BME280;39505;53.040;18.488;2022-12-29T01:00:03;100689.28;;;6.68;100.00
53619;BME280;39505;53.040;18.488;2022-12-29T01:00:15;100696.41;;;6.68;100.00
53619;BME280;39505;53.040;18.488;2022-12-29T01:00:28;100697.28;;;6.68;100.00
53619;BME280;39505;53.040;18.488;2022-12-29T01:00:41;100698.22;;;6.67;100.00
53619;BME280;39505;53.040;18.488;2022-12-29T01:01:01;100691.22;;;6.66;100.00
53619;BME280;39505;53.040;18.488;2022-12-29T01:01:14;100699.06;;;6.68;100.00
53619;BME280;39505;53.040;18.488;2022-12-29T01:01:29;100708.03;;;6.67;100.00
53619;BME280;39505;53.040;18.488;2022-12-29T01:01:42;100696.53;;;6.66;100.00
53619;BME280;39505;53.040;18.488;2022-12-29T01:01:56;100700.03;;;6.67;100.00
53619;BME280;39505;53.040;18.488;2022-12-29T01:02:09;100696.53;;;6.66;100.00
53619;BME280;39505;53.040;18.488;2022-12-29T01:02:23;100696.41;;;6.68;100.00
53619;BME280;39505;53.040;18.488;2022-12-29T01:02:36;100696.53;;;6.66;100.00
53619;BME280;39505;53.040;18.488;2022-12-29T01:02:48;100696.41;;;6.68;100.00
53619;BME280;39505;53.040;18.488;2022-12-29T01:03:01;100701.00;;;6.66;100.00
53619;BME280;39505;53.040;18.488;2022-12-29T01:03:14;100698.22;;;6.67;100.00
53619;BME280;39505;53.040;18.488;2022-12-29T01:03:28;100701.88;;;6.66;100.00
53619;BME280;39505;53.040;18.488;2022-12-29T01:03:40;100698.22;;;6.67;100.00
53619;BME280;39505;53.040;18.488;2022-12-29T01:03:53;100697.38;;;6.67;100.00
53619;BME280;39505;53.040;18.488;2022-12-29T01:04:13;100702.72;;;6.67;100.00
53619;BME280;39505;53.040;18.488;2022-12-29T01:04:26;100693.88;;;6.66;100.00
53619;BME280;39505;53.040;18.488;2022-12-29T01:04:39;100697.38;;;6.67;100.00
53619;BME280;39505;53.040;18.488;2022-12-29T01:04:52;100699.94;;;6.68;100.00
53619;BME280;39505;53.040;18.488;2022-12-29T01:05:04;100695.56;;;6.67;100.00
53619;BME280;39505;53.040;18.488;2022-12-29T01:05:18;100694.63;;;6.68;100.00
53619;BME280;39505;53.040;18.488;2022-12-29T01:05:30;100698.22;;;6.67;100.00
53619;BME280;39505;53.040;18.488;2022-12-29T01:05:43;100696.41;;;6.68;100.00
53619;BME280;39505;53.040;18.488;2022-12-29T01:05:59;100694.81;;;6.65;100.00
53619;BME280;39505;53.040;18.488;2022-12-29T01:06:12;100700.03;;;6.67;100.00
53619;BME280;39505;53.040;18.488;2022-12-29T01:06:25;100699.94;;;6.68;100.00
53619;BME280;39505;53.040;18.488;2022-12-29T01:06:39;100692.06;;;6.67;100.00
53619;BME280;39505;53.040;18.488;2022-12-29T01:06:53;100691.22;;;6.66;100.00
53619;BME280;39505;53.040;18.488;2022-12-29T01:07:05;100693.13;;;6.64;100.00
53619;BME280;39505;53.040;18.488;2022-12-29T01:07:19;100693.00;;;6.66;100.00
53619;BME280;39505;53.040;18.488;2022-12-29T01:07:32;100699.19;;;6.66;100.00
53619;BME280;39505;53.040;18.488;2022-12-29T01:07:44;100695.66;;;6.66;100.00
53619;BME280;39505;53.040;18.488;2022-12-29T01:07:57;100688.53;;;6.66;100.00
53619;BME280;39505;53.040;18.488;2022-12-29T01:08:10;100695.47;;;6.69;100.00
53619;BME280;39505;53.040;18.488;2022-12-29T01:08:22;100688.41;;;6.68;100.00
53619;BME280;39505;53.040;18.488;2022-12-29T01:08:35;100694.63;;;6.68;100.00
53619;BME280;39505;53.040;18.488;2022-12-29T01:08:48;100691.97;;;6.68;100.00
53619;BME280;39505;53.040;18.488;2022-12-29T01:09:21;100692.91;;;6.67;100.00
53619;BME280;39505;53.040;18.488;2022-12-29T01:09:53;100701.88;;;6.66;100.00
53619;BME280;39505;53.040;18.488;2022-12-29T01:10:23;100693.00;;;6.66;100.00
53619;BME280;39505;53.040;18.488;2022-12-29T01:10:36;100695.66;;;6.66;100.00
53619;BME280;39505;53.040;18.488;2022-12-29T01:10:57;100687.81;;;6.64;100.00
53619;BME280;39505;53.040;18.488;2022-12-29T01:11:11;100697.47;;;6.65;100.00
53619;BME280;39505;53.040;18.488;2022-12-29T01:11:24;100698.47;;;6.64;100.00
53619;BME280;39505;53.040;18.488;2022-12-29T01:11:38;100694.81;;;6.65;100.00
53619;BME280;39505;53.040;18.488;2022-12-29T01:11:51;100691.41;;;6.63;100.00
53619;BME280;39505;53.040;18.488;2022-12-29T01:12:04;100694.81;;;6.65;100.00
53619;BME280;39505;53.040;18.488;2022-12-29T01:12:18;100691.41;;;6.63;100.00
53619;BME280;39505;53.040;18.488;2022-12-29T01:12:53;100689.59;;;6.64;100.00
53619;BME280;39505;53.040;18.488;2022-12-29T01:13:07;100697.59;;;6.64;100.00
53619;BME280;39505;53.040;18.488;2022-12-29T01:13:19;100686.94;;;6.64;100.00
53619;BME280;39505;53.040;18.488;2022-12-29T01:13:32;100691.41;;;6.63;100.00
53619;BME280;39505;53.040;18.488;2022-12-29T01:13:44;100689.72;;;6.62;100.00
53619;BME280;39505;53.040;18.488;2022-12-29T01:13:57;100694.06;;;6.63;100.00
53619;BME280;39505;53.040;18.488;2022-12-29T01:14:10;100691.41;;;6.63;100.00
53619;BME280;39505;53.040;18.488;2022-12-29T01:14:23;100695.06;;;6.62;100.00
53619;BME280;39505;53.040;18.488;2022-12-29T01:14:36;100687.16;;;6.61;100.00
53619;BME280;39505;53.040;18.488;2022-12-29T01:14:50;100689.72;;;6.62;100.00
53619;BME280;39505;53.040;18.488;2022-12-29T01:15:03;100686.09;;;6.63;100.00
53619;BME280;39505;53.040;18.488;2022-12-29T01:15:16;100692.38;;;6.62;100.00
53619;BME280;39505;53.040;18.488;2022-12-29T01:15:29;100695.78;;;6.64;100.00
53619;BME280;39505;53.040;18.488;2022-12-29T01:15:49;100692.25;;;6.64;100.00
53619;BME280;39505;53.040;18.488;2022-12-29T01:16:02;100690.56;;;6.63;100.00
53619;BME280;39505;53.040;18.488;2022-12-29T01:16:16;100692.38;;;6.62;100.00
53619;BME280;39505;53.040;18.488;2022-12-29T01:16:29;100693.22;;;6.63;100.00
53619;BME280;39505;53.040;18.488;2022-12-29T01:16:42;100694.06;;;6.63;100.00
53619;BME280;39505;53.040;18.488;2022-12-29T01:16:56;100700.38;;;6.62;100.00
53619;BME280;39505;53.040;18.488;2022-12-29T01:17:08;100688.22;;;6.58;100.00
53619;BME280;39505;53.040;18.488;2022-12-29T01:17:21;100692.47;;;6.61;100.00
53619;BME280;39505;53.040;18.488;2022-12-29T01:17:34;100693.31;;;6.61;100.00
53619;BME280;39505;53.040;18.488;2022-12-29T01:17:48;100694.19;;;6.62;100.00
53619;BME280;39505;53.040;18.488;2022-12-29T01:18:00;100700.38;;;6.62;100.00
53619;BME280;39505;53.040;18.488;2022-12-29T01:18:13;100692.38;;;6.62;100.00
53619;BME280;39505;53.040;18.488;2022-12-29T01:18:26;100696.75;;;6.63;100.00
53619;BME280;39505;53.040;18.488;2022-12-29T01:18:39;100695.91;;;6.63;100.00
53619;BME280;39505;53.040;18.488;2022-12-29T01:18:51;100689.72;;;6.62;100.00
53619;BME280;39505;53.040;18.488;2022-12-29T01:19:04;100689.81;;;6.61;100.00
53619;BME280;39505;53.040;18.488;2022-12-29T01:19:18;100686.09;;;6.63;100.00
53619;BME280;39505;53.040;18.488;2022-12-29T01:19:31;100686.94;;;6.64;100.00
53619;BME280;39505;53.040;18.488;2022-12-29T01:19:45;100689.59;;;6.64;100.00
53619;BME280;39505;53.040;18.488;2022-12-29T01:19:57;100691.31;;;6.65;100.00
53619;BME280;39505;53.040;18.488;2022-12-29T01:20:11;100693.13;;;6.64;100.00
53619;BME280;39505;53.040;18.488;2022-12-29T01:20:23;100691.41;;;6.63;100.00
53619;BME280;39505;53.040;18.488;2022-12-29T01:20:36;100686.09;;;6.63;100.00
53619;BME280;39505;53.040;18.488;2022-12-29T01:20:49;100678.84;;;6.65;100.00
53619;BME280;39505;53.040;18.488;2022-12-29T01:21:05;100685.97;;;6.65;100.00
53619;BME280;39505;53.040;18.488;2022-12-29T01:21:18;100680.75;;;6.63;100.00
53619;BME280;39505;53.040;18.488;2022-12-29T01:21:31;100688.66;;;6.65;100.00
53619;BME280;39505;53.040;18.488;2022-12-29T01:21:45;100682.47;;;6.64;100.00
53619;BME280;39505;53.040;18.488;2022-12-29T01:21:57;100677.16;;;6.64;100.00
53619;BME280;39505;53.040;18.488;2022-12-29T01:22:10;100679.81;;;6.64;100.00
53619;BME280;39505;53.040;18.488;2022-12-29T01:22:23;100678.94;;;6.64;100.00
53619;BME280;39505;53.040;18.488;2022-12-29T01:22:35;100687.81;;;6.64;100.00
53619;BME280;39505;53.040;18.488;2022-12-29T01:22:49;100682.47;;;6.64;100.00
53619;BME280;39505;53.040;18.488;2022-12-29T01:23:01;100680.66;;;6.65;100.00
53619;BME280;39505;53.040;18.488;2022-12-29T01:23:14;100678.84;;;6.65;100.00
53619;BME280;39505;53.040;18.488;2022-12-29T01:23:28;100679.06;;;6.62;100.00
53619;BME280;39505;53.040;18.488;2022-12-29T01:23:41;100687.81;;;6.64;100.00
53619;BME280;39505;53.040;18.488;2022-12-29T01:23:53;100685.13;;;6.64;100.00
53619;BME280;39505;53.040;18.488;2022-12-29T01:24:06;100685.25;;;6.63;100.00
53619;BME280;39505;53.040;18.488;2022-12-29T01:24:20;100679.91;;;6.63;100.00
53619;BME280;39505;53.040;18.488;2022-12-29T01:24:34;100680.75;;;6.63;100.00
53619;BME280;39505;53.040;18.488;2022-12-29T01:24:47;100682.47;;;6.64;100.00
53619;BME280;39505;53.040;18.488;2022-12-29T01:24:59;100677.25;;;6.63;100.00
53619;BME280;39505;53.040;18.488;2022-12-29T01:25:12;100680.75;;;6.63;100.00
53619;BME280;39505;53.040;18.488;2022-12-29T01:25:25;100680.66;;;6.65;100.00
53619;BME280;39505;53.040;18.488;2022-12-29T01:25:37;100677.16;;;6.64;100.00
53619;BME280;39505;53.040;18.488;2022-12-29T01:25:50;100678.84;;;6.65;100.00
53619;BME280;39505;53.040;18.488;2022-12-29T01:26:08;100678.00;;;6.65;100.00
53619;BME280;39505;53.040;18.488;2022-12-29T01:26:21;100677.34;;;6.61;100.00
53619;BME280;39505;53.040;18.488;2022-12-29T01:26:34;100679.81;;;6.64;100.00
53619;BME280;39505;53.040;18.488;2022-12-29T01:26:47;100676.41;;;6.62;100.00
53619;BME280;39505;53.040;18.488;2022-12-29T01:27:00;100677.25;;;6.63;100.00
53619;BME280;39505;53.040;18.488;2022-12-29T01:27:13;100673.00;;;6.60;100.00